createdAt,value
2022-08-02T00:00:46.046Z,17.68
2022-08-02T00:03:14.228Z,17.67
2022-08-02T00:05:43.475Z,17.68
2022-08-02T00:08:21.763Z,17.74
2022-08-02T00:10:49.976Z,17.77
2022-08-02T00:13:18.138Z,17.78
2022-08-02T00:15:47.684Z,17.79
2022-08-02T00:18:15.847Z,17.76
2022-08-02T00:20:43.938Z,17.72
2022-08-02T00:23:12.114Z,17.68
2022-08-02T00:25:55.269Z,17.71
2022-08-02T00:28:27.270Z,17.64
2022-08-02T00:30:58.461Z,17.73
2022-08-02T00:34:27.677Z,17.73
2022-08-02T00:36:15.193Z,17.58
2022-08-02T00:38:43.809Z,17.85
2022-08-02T00:41:17.310Z,17.83
2022-08-02T00:43:45.857Z,17.79
2022-08-02T00:46:16.070Z,17.88
2022-08-02T00:48:44.139Z,17.83
2022-08-02T00:51:13.008Z,17.80
2022-08-02T00:53:41.955Z,17.73
2022-08-02T00:56:10.263Z,17.79
2022-08-02T00:58:39.075Z,17.86
2022-08-02T01:01:07.188Z,17.77
2022-08-02T01:03:36.813Z,17.69
2022-08-02T01:06:14.096Z,17.76
2022-08-02T01:08:43.745Z,17.77
2022-08-02T01:11:12.181Z,17.73
2022-08-02T01:13:40.819Z,17.75
2022-08-02T01:16:15.666Z,17.73
2022-08-02T01:18:49.078Z,17.60
2022-08-02T01:21:40.494Z,17.62
2022-08-02T01:24:25.964Z,17.63
2022-08-02T01:27:01.968Z,17.69
2022-08-02T01:29:35.842Z,17.62
2022-08-02T01:32:09.899Z,17.64
2022-08-02T01:34:43.515Z,17.63
2022-08-02T01:37:18.059Z,17.62
2022-08-02T01:39:48.282Z,17.64
2022-08-02T01:42:19.506Z,17.59
2022-08-02T01:44:51.208Z,17.61
2022-08-02T01:47:23.133Z,17.56
2022-08-02T01:49:54.154Z,17.60
2022-08-02T01:52:22.233Z,17.48
2022-08-02T01:54:53.480Z,17.42
2022-08-02T01:57:23.318Z,17.43
2022-08-02T01:59:56.432Z,17.29
2022-08-02T02:02:30.056Z,17.41
2022-08-02T02:05:01.551Z,17.40
2022-08-02T02:07:34.415Z,17.43
2022-08-02T02:10:05.546Z,17.43
2022-08-02T02:12:36.050Z,17.52
2022-08-02T02:15:07.379Z,17.45
2022-08-02T02:17:50.605Z,17.50
2022-08-02T02:20:26.271Z,17.64
2022-08-02T02:22:54.522Z,17.65
2022-08-02T02:25:32.280Z,17.61
2022-08-02T02:28:08.308Z,17.59
2022-08-02T02:30:40.282Z,17.58
2022-08-02T02:33:09.836Z,17.51
2022-08-02T02:35:39.475Z,17.43
2022-08-02T02:38:14.423Z,17.52
2022-08-02T02:40:43.242Z,17.51
2022-08-02T02:43:13.404Z,17.46
2022-08-02T02:45:44.908Z,17.45
2022-08-02T02:48:17.009Z,17.40
2022-08-02T02:50:45.727Z,17.42
2022-08-02T02:53:14.795Z,17.43
2022-08-02T02:56:02.354Z,17.44
2022-08-02T02:58:31.898Z,17.24
2022-08-02T03:01:19.486Z,17.53
2022-08-02T03:03:48.514Z,17.47
2022-08-02T03:06:16.746Z,17.59
2022-08-02T03:08:45.209Z,17.51
2022-08-02T03:11:15.859Z,17.47
2022-08-02T03:13:44.433Z,17.57
2022-08-02T03:16:14.447Z,17.44
2022-08-02T03:18:44.895Z,17.37
2022-08-02T03:21:14.404Z,17.37
2022-08-02T03:23:44.211Z,17.34
2022-08-02T03:26:12.672Z,17.47
2022-08-02T03:28:40.894Z,17.49
2022-08-02T03:31:09.649Z,17.41
2022-08-02T03:33:40.412Z,17.31
2022-08-02T03:36:14.845Z,17.30
2022-08-02T03:38:45.222Z,17.28
2022-08-02T03:41:15.107Z,17.34
2022-08-02T03:43:44.266Z,17.22
2022-08-02T03:46:16.052Z,17.19
2022-08-02T03:48:46.261Z,17.21
2022-08-02T03:51:14.708Z,17.12
2022-08-02T03:53:43.586Z,17.10
2022-08-02T03:56:12.014Z,17.03
2022-08-02T03:58:40.057Z,16.90
2022-08-02T04:01:08.614Z,16.87
2022-08-02T04:03:36.707Z,16.82
2022-08-02T04:06:06.486Z,16.77
2022-08-02T04:08:38.363Z,16.79
2022-08-02T04:11:24.767Z,16.66
2022-08-02T04:13:56.682Z,16.81
2022-08-02T04:16:32.869Z,16.74
2022-08-02T04:19:05.013Z,16.73
2022-08-02T04:21:48.635Z,16.75
2022-08-02T04:24:24.703Z,16.66
2022-08-02T04:26:54.593Z,16.72
2022-08-02T04:29:27.441Z,16.80
2022-08-02T04:31:55.667Z,16.75
2022-08-02T04:34:23.832Z,16.74
2022-08-02T04:36:53.823Z,16.74
2022-08-02T04:39:21.945Z,16.84
2022-08-02T04:41:52.354Z,16.89
2022-08-02T04:44:23.992Z,16.82
2022-08-02T04:46:54.629Z,16.87
2022-08-02T04:49:22.798Z,16.92
2022-08-02T04:51:52.616Z,16.98
2022-08-02T04:54:20.599Z,17.01
2022-08-02T04:56:48.678Z,17.09
2022-08-02T04:59:16.987Z,17.18
2022-08-02T05:01:45.025Z,17.17
2022-08-02T05:04:13.038Z,17.27
2022-08-02T05:06:41.389Z,17.34
2022-08-02T05:09:10.787Z,17.35
2022-08-02T05:11:38.725Z,17.38
2022-08-02T05:14:07.414Z,17.48
2022-08-02T05:16:35.541Z,17.55
2022-08-02T05:19:03.942Z,17.60
2022-08-02T05:21:32.957Z,17.47
2022-08-02T05:24:01.067Z,17.79
2022-08-02T05:26:30.699Z,17.92
2022-08-02T05:28:59.136Z,18.00
2022-08-02T05:31:27.110Z,18.05
2022-08-02T05:33:55.067Z,18.06
2022-08-02T05:36:23.735Z,18.09
2022-08-02T05:38:52.967Z,18.27
2022-08-02T05:41:28.072Z,18.31
2022-08-02T05:43:57.406Z,18.37
2022-08-02T05:46:25.505Z,18.43
2022-08-02T05:48:53.959Z,18.46
2022-08-02T05:51:24.874Z,18.49
2022-08-02T05:53:59.368Z,18.62
2022-08-02T05:56:34.492Z,18.52
2022-08-02T05:59:08.758Z,18.57
2022-08-02T06:01:41.716Z,18.67
2022-08-02T06:04:14.897Z,18.73
2022-08-02T06:06:46.061Z,18.68
2022-08-02T06:09:23.052Z,18.43
2022-08-02T06:12:02.178Z,18.47
2022-08-02T06:14:33.984Z,18.55
2022-08-02T06:17:05.847Z,18.61
2022-08-02T06:19:36.462Z,18.70
2022-08-02T06:22:31.473Z,18.66
2022-08-02T06:25:47.761Z,18.69
2022-08-02T06:27:56.878Z,18.80
2022-08-02T06:30:26.794Z,18.86
2022-08-02T06:32:55.149Z,18.96
2022-08-02T06:35:23.330Z,19.02
2022-08-02T06:37:58.615Z,18.90
2022-08-02T06:40:30.920Z,19.02
2022-08-02T06:43:13.252Z,18.94
2022-08-02T06:45:42.819Z,18.91
2022-08-02T06:48:11.397Z,18.75
2022-08-02T06:50:42.256Z,18.78
2022-08-02T06:53:11.009Z,18.65
2022-08-02T06:55:44.041Z,18.94
2022-08-02T06:58:13.144Z,18.95
2022-08-02T07:00:43.671Z,18.82
2022-08-02T07:03:12.090Z,18.98
2022-08-02T07:05:40.674Z,19.09
2022-08-02T07:08:09.260Z,19.01
2022-08-02T07:10:37.361Z,19.13
2022-08-02T07:13:05.524Z,19.19
2022-08-02T07:15:34.027Z,19.12
2022-08-02T07:18:03.561Z,19.10
2022-08-02T07:20:31.659Z,19.21
2022-08-02T07:22:59.954Z,19.27
2022-08-02T07:25:29.043Z,19.33
2022-08-02T07:28:23.719Z,19.26
2022-08-02T07:30:52.481Z,19.19
2022-08-02T07:33:38.658Z,19.32
2022-08-02T07:36:09.543Z,19.41
2022-08-02T07:38:40.482Z,19.37
2022-08-02T07:41:09.230Z,19.40
2022-08-02T07:43:39.484Z,19.32
2022-08-02T07:46:08.026Z,19.00
2022-08-02T07:48:37.599Z,19.02
2022-08-02T07:51:05.770Z,19.12
2022-08-02T07:53:50.591Z,19.23
2022-08-02T07:56:19.945Z,19.46
2022-08-02T07:58:48.354Z,20.12
2022-08-02T08:01:17.237Z,20.80
2022-08-02T08:03:47.138Z,20.90
2022-08-02T08:06:15.402Z,20.36
2022-08-02T08:08:44.558Z,20.19
2022-08-02T08:11:12.536Z,20.03
2022-08-02T08:13:40.688Z,20.38
2022-08-02T08:16:08.833Z,20.36
2022-08-02T08:18:37.016Z,20.43
2022-08-02T08:21:06.863Z,20.33
2022-08-02T08:23:35.638Z,20.36
2022-08-02T08:26:04.671Z,20.42
2022-08-02T08:28:32.857Z,20.50
2022-08-02T08:31:01.326Z,20.40
2022-08-02T08:33:29.610Z,20.54
2022-08-02T08:35:58.227Z,20.65
2022-08-02T08:38:28.084Z,20.53
2022-08-02T08:40:56.933Z,20.43
2022-08-02T08:43:25.181Z,20.32
2022-08-02T08:45:55.615Z,20.53
2022-08-02T08:48:31.242Z,20.71
2022-08-02T08:51:07.040Z,20.41
2022-08-02T08:53:41.532Z,20.58
2022-08-02T08:56:16.037Z,20.66
2022-08-02T08:58:45.291Z,20.82
2022-08-02T09:01:14.583Z,20.88
2022-08-02T09:03:42.556Z,20.83
2022-08-02T09:06:10.756Z,20.67
2022-08-02T09:08:40.388Z,20.73
2022-08-02T09:11:15.757Z,20.83
2022-08-02T09:13:52.418Z,21.04
2022-08-02T09:16:35.515Z,20.83
2022-08-02T09:19:18.826Z,20.50
2022-08-02T09:21:47.554Z,20.47
2022-08-02T09:24:22.777Z,20.43
2022-08-02T09:26:52.683Z,20.39
2022-08-02T09:29:23.825Z,20.43
2022-08-02T09:31:52.840Z,20.50
2022-08-02T09:34:22.426Z,20.32
2022-08-02T09:36:54.295Z,20.35
2022-08-02T09:39:26.516Z,20.38
2022-08-02T09:41:54.619Z,20.64
2022-08-02T09:44:22.841Z,20.64
2022-08-02T09:46:51.028Z,20.77
2022-08-02T09:49:20.487Z,20.62
2022-08-02T09:51:52.166Z,20.73
2022-08-02T09:54:21.939Z,20.85
2022-08-02T09:56:53.193Z,20.80
2022-08-02T09:59:24.952Z,20.97
2022-08-02T10:02:01.261Z,21.12
2022-08-02T10:04:33.871Z,21.12
2022-08-02T10:07:04.796Z,21.02
2022-08-02T10:09:33.415Z,20.86
2022-08-02T10:12:04.825Z,20.99
2022-08-02T10:14:34.805Z,21.06
2022-08-02T10:17:06.434Z,21.07
2022-08-02T10:20:00.417Z,21.21
2022-08-02T10:22:25.435Z,21.33
2022-08-02T10:24:54.768Z,21.44
2022-08-02T10:27:26.268Z,21.41
2022-08-02T10:29:59.301Z,21.50
2022-08-02T10:32:31.332Z,21.61
2022-08-02T10:35:18.557Z,21.66
2022-08-02T10:37:51.747Z,21.54
2022-08-02T10:40:27.146Z,21.51
2022-08-02T10:43:00.641Z,21.55
2022-08-02T10:45:30.140Z,21.51
2022-08-02T10:48:06.299Z,21.57
2022-08-02T10:50:56.885Z,21.68
2022-08-02T10:53:30.076Z,21.67
2022-08-02T10:56:00.361Z,21.57
2022-08-02T10:58:32.554Z,21.46
2022-08-02T11:01:06.519Z,21.43
2022-08-02T11:03:40.051Z,21.24
2022-08-02T11:06:25.098Z,21.41
2022-08-02T11:09:36.004Z,21.32
2022-08-02T11:12:07.126Z,21.44
2022-08-02T11:14:38.985Z,21.45
2022-08-02T11:17:15.417Z,21.40
2022-08-02T11:20:27.084Z,21.30
2022-08-02T11:23:16.965Z,21.43
2022-08-02T11:26:03.232Z,21.47
2022-08-02T11:28:32.469Z,21.39
2022-08-02T11:31:03.125Z,21.43
2022-08-02T11:33:36.984Z,21.41
2022-08-02T11:36:07.548Z,21.43
2022-08-02T11:38:35.928Z,21.14
2022-08-02T11:41:06.180Z,21.13
2022-08-02T11:43:39.092Z,20.94
2022-08-02T11:46:15.388Z,20.69
2022-08-02T11:48:44.652Z,20.70
2022-08-02T11:51:14.884Z,20.76
2022-08-02T11:53:46.173Z,20.72
2022-08-02T11:56:21.711Z,20.71
2022-08-02T11:59:06.295Z,20.62
2022-08-02T12:01:45.448Z,20.53
2022-08-02T12:04:22.751Z,20.64
2022-08-02T12:06:59.464Z,20.53
2022-08-02T12:09:28.982Z,20.72
2022-08-02T12:11:57.999Z,20.87
2022-08-02T12:14:30.021Z,20.99
2022-08-02T12:17:32.767Z,20.96
2022-08-02T12:20:00.944Z,20.89
2022-08-02T12:22:29.605Z,20.80
2022-08-02T12:24:59.174Z,20.80
2022-08-02T12:27:40.676Z,20.76
2022-08-02T12:30:10.589Z,20.72
2022-08-02T12:32:40.836Z,20.81
2022-08-02T12:35:12.343Z,20.76
2022-08-02T12:37:42.768Z,20.79
2022-08-02T12:40:26.696Z,20.74
2022-08-02T12:42:58.640Z,20.70
2022-08-02T12:45:39.222Z,20.74
2022-08-02T12:48:11.077Z,20.78
2022-08-02T12:50:40.076Z,20.72
2022-08-02T12:53:10.684Z,20.80
2022-08-02T12:56:00.913Z,20.74
2022-08-02T12:58:30.878Z,20.62
2022-08-02T13:01:01.150Z,20.34
2022-08-02T13:04:09.000Z,20.46
2022-08-02T13:06:40.663Z,20.45
2022-08-02T13:09:17.570Z,20.26
2022-08-02T13:11:46.857Z,20.36
2022-08-02T13:14:18.406Z,20.39
2022-08-02T13:16:48.034Z,20.43
2022-08-02T13:19:17.548Z,20.38
2022-08-02T13:22:01.575Z,20.31
2022-08-02T13:24:40.759Z,20.33
2022-08-02T13:27:20.821Z,20.38
2022-08-02T13:29:49.983Z,20.44
2022-08-02T13:32:18.162Z,20.25
2022-08-02T13:34:47.748Z,20.19
2022-08-02T13:37:16.540Z,20.23
2022-08-02T13:39:55.594Z,20.24
2022-08-02T13:42:33.518Z,20.10
2022-08-02T13:45:12.139Z,20.15
2022-08-02T13:47:57.332Z,20.27
2022-08-02T13:50:32.044Z,20.30
2022-08-02T13:53:00.473Z,20.14
2022-08-02T13:55:28.510Z,20.16
2022-08-02T13:57:56.544Z,20.15
2022-08-02T14:00:35.615Z,20.11
2022-08-02T14:03:05.973Z,20.13
2022-08-02T14:05:46.880Z,20.10
2022-08-02T14:08:17.988Z,20.17
2022-08-02T14:10:47.131Z,20.12
2022-08-02T14:13:15.317Z,20.09
2022-08-02T14:15:44.050Z,19.94
2022-08-02T14:18:12.390Z,20.03
2022-08-02T14:20:41.870Z,19.98
2022-08-02T14:23:10.067Z,19.99
2022-08-02T14:25:39.041Z,20.04
2022-08-02T14:28:07.154Z,20.13
2022-08-02T14:30:35.591Z,20.02
2022-08-02T14:33:05.450Z,20.06
2022-08-02T14:35:33.673Z,20.04
2022-08-02T14:38:03.081Z,19.94
2022-08-02T14:40:32.118Z,19.83
2022-08-02T14:43:01.102Z,19.81
2022-08-02T14:45:40.471Z,19.94
2022-08-02T14:48:11.316Z,19.67
2022-08-02T14:50:39.373Z,19.85
2022-08-02T14:53:12.395Z,19.90
2022-08-02T14:55:41.980Z,19.82
2022-08-02T14:58:10.149Z,19.76
2022-08-02T15:00:40.845Z,19.71
2022-08-02T15:03:10.189Z,19.65
2022-08-02T15:05:38.287Z,19.64
2022-08-02T15:08:08.338Z,19.50
2022-08-02T15:10:36.876Z,19.58
2022-08-02T15:13:04.895Z,19.59
2022-08-02T15:15:33.045Z,19.55
2022-08-02T15:18:12.862Z,19.31
2022-08-02T15:20:41.480Z,19.37
2022-08-02T15:23:15.059Z,19.42
2022-08-02T15:25:44.760Z,19.34
2022-08-02T15:28:12.817Z,19.29
2022-08-02T15:30:41.214Z,19.12
2022-08-02T15:33:09.442Z,19.19
2022-08-02T15:35:37.568Z,19.01
2022-08-02T15:38:05.767Z,19.00
2022-08-02T15:40:37.333Z,18.81
2022-08-02T15:43:05.465Z,18.67
2022-08-02T15:45:33.804Z,18.71
2022-08-02T15:48:01.864Z,18.61
2022-08-02T15:50:32.180Z,18.52
2022-08-02T15:53:00.630Z,18.56
2022-08-02T15:55:28.568Z,18.55
2022-08-02T15:58:17.040Z,18.45
2022-08-02T16:00:46.059Z,18.45
2022-08-02T16:03:14.442Z,18.38
2022-08-02T16:05:42.576Z,18.29
2022-08-02T16:08:10.692Z,18.28
2022-08-02T16:10:38.856Z,18.20
2022-08-02T16:13:23.563Z,18.09
2022-08-02T16:15:53.291Z,18.18
2022-08-02T16:18:21.285Z,18.10
2022-08-02T16:20:49.432Z,17.97
2022-08-02T16:23:17.731Z,17.94
2022-08-02T16:25:45.733Z,17.78
2022-08-02T16:28:13.798Z,17.69
2022-08-02T16:30:42.184Z,17.63
2022-08-02T16:33:11.607Z,17.70
2022-08-02T16:35:39.547Z,17.64
2022-08-02T16:38:08.148Z,17.60
2022-08-02T16:40:36.233Z,17.43
2022-08-02T16:43:09.139Z,17.30
2022-08-02T16:45:38.037Z,17.39
2022-08-02T16:48:09.463Z,17.30
2022-08-02T16:50:39.521Z,17.10
2022-08-02T16:53:07.951Z,16.98
2022-08-02T16:55:38.729Z,17.03
2022-08-02T16:58:20.199Z,17.04
2022-08-02T17:00:48.340Z,17.06
2022-08-02T17:03:16.705Z,16.90
2022-08-02T17:05:56.362Z,16.73
2022-08-02T17:08:31.762Z,16.74
2022-08-02T17:11:03.798Z,16.73
2022-08-02T17:13:32.212Z,16.57
2022-08-02T17:16:20.594Z,16.69
2022-08-02T17:18:52.646Z,16.53
2022-08-02T17:21:22.759Z,16.50
2022-08-02T17:26:39.668Z,16.50
2022-08-02T17:29:16.426Z,16.47
2022-08-02T17:32:02.435Z,16.38
2022-08-02T17:34:34.191Z,16.47
2022-08-02T17:37:06.002Z,16.42
2022-08-02T17:39:44.326Z,16.45
2022-08-02T17:42:23.812Z,16.53
2022-08-02T17:44:53.061Z,16.50
2022-08-02T17:47:21.640Z,16.47
2022-08-02T17:49:50.246Z,16.40
2022-08-02T17:52:51.145Z,16.28
2022-08-02T17:55:13.640Z,16.30
2022-08-02T17:57:57.369Z,16.28
2022-08-02T18:00:33.954Z,16.19
2022-08-02T18:03:05.537Z,16.18
2022-08-02T18:05:39.228Z,16.30
2022-08-02T18:08:10.426Z,16.32
2022-08-02T18:10:42.478Z,16.25
2022-08-02T18:13:12.280Z,16.39
2022-08-02T18:15:40.448Z,16.29
2022-08-02T18:18:08.701Z,16.28
2022-08-02T18:20:37.067Z,16.27
2022-08-02T18:23:05.814Z,16.12
2022-08-02T18:25:46.660Z,16.39
2022-08-02T18:28:16.708Z,16.37
2022-08-02T18:30:45.174Z,16.43
2022-08-02T18:33:58.681Z,16.43
2022-08-02T18:36:01.678Z,16.28
2022-08-02T18:38:31.506Z,16.22
2022-08-02T18:41:02.947Z,16.24
2022-08-02T18:43:31.647Z,16.32
2022-08-02T18:46:15.709Z,16.29
2022-08-02T18:48:46.629Z,16.31
2022-08-02T18:51:16.087Z,16.28
2022-08-02T18:53:48.933Z,16.29
2022-08-02T18:56:19.857Z,16.33
2022-08-02T18:58:52.829Z,16.35
2022-08-02T19:01:31.353Z,16.29
2022-08-02T19:04:01.029Z,16.36
2022-08-02T19:06:29.584Z,16.38
2022-08-02T19:09:06.200Z,16.33
2022-08-02T19:11:47.411Z,16.24
2022-08-02T19:14:19.365Z,16.33
2022-08-02T19:16:56.786Z,16.39
2022-08-02T19:19:28.758Z,16.39
2022-08-02T19:24:47.226Z,16.34
2022-08-02T19:27:26.300Z,16.33
2022-08-02T19:30:02.271Z,16.23
2022-08-02T19:38:10.607Z,16.29
2022-08-02T19:40:41.804Z,16.33
2022-08-02T19:44:21.288Z,16.22
2022-08-02T19:46:00.402Z,16.28
2022-08-02T19:48:29.056Z,16.30
2022-08-02T19:51:01.051Z,16.26
2022-08-02T19:53:47.825Z,16.33
2022-08-02T19:56:20.680Z,16.27
2022-08-02T19:58:52.108Z,16.19
2022-08-02T20:01:27.018Z,16.31
2022-08-02T20:04:12.783Z,16.31
2022-08-02T20:06:45.089Z,16.42
2022-08-02T20:09:16.327Z,16.32
2022-08-02T20:11:45.254Z,16.45
2022-08-02T20:14:14.841Z,16.52
2022-08-02T20:16:43.046Z,16.55
2022-08-02T20:19:14.276Z,16.46
2022-08-02T20:21:52.911Z,16.51
2022-08-02T20:24:22.602Z,16.55
2022-08-02T20:26:55.182Z,16.66
2022-08-02T20:29:42.492Z,16.64
2022-08-02T20:32:14.978Z,16.54
2022-08-02T20:34:43.140Z,16.74
2022-08-02T20:37:59.306Z,16.79
2022-08-02T20:40:06.868Z,16.83
2022-08-02T20:42:35.705Z,16.85
2022-08-02T20:45:05.782Z,16.96
2022-08-02T20:47:39.116Z,17.03
2022-08-02T20:50:34.303Z,17.12
2022-08-02T20:53:03.168Z,17.18
2022-08-02T20:55:32.425Z,17.25
2022-08-02T20:58:02.573Z,17.32
2022-08-02T21:00:32.867Z,17.42
2022-08-02T21:03:02.696Z,17.43
2022-08-02T21:05:43.573Z,17.43
2022-08-02T21:08:21.637Z,17.66
2022-08-02T21:10:52.536Z,17.82
2022-08-02T21:13:24.210Z,17.73
2022-08-02T21:15:57.508Z,17.70
2022-08-02T21:18:39.758Z,17.59
2022-08-02T21:21:09.814Z,17.84
2022-08-02T21:23:38.477Z,17.77
2022-08-02T21:26:19.661Z,17.89
2022-08-02T21:28:54.172Z,17.96
2022-08-02T21:31:23.771Z,17.95
2022-08-02T21:34:00.480Z,17.99
2022-08-02T21:36:30.480Z,17.98
2022-08-02T21:39:04.229Z,18.01
2022-08-02T21:41:39.566Z,18.00
2022-08-02T21:44:15.986Z,18.06
2022-08-02T21:46:48.794Z,18.07
2022-08-02T21:49:17.483Z,18.06
2022-08-02T21:54:33.950Z,18.09
2022-08-02T21:57:02.046Z,18.06
2022-08-02T21:59:33.285Z,18.10
2022-08-02T22:02:02.943Z,18.18
2022-08-02T22:04:31.915Z,18.17
2022-08-02T22:07:01.547Z,18.17
2022-08-02T22:09:42.498Z,18.22
2022-08-02T22:12:17.549Z,18.18
2022-08-02T22:14:49.428Z,18.25
2022-08-02T22:17:51.621Z,18.26
2022-08-02T22:20:14.344Z,18.27
2022-08-02T22:22:43.568Z,18.29
2022-08-02T22:25:26.878Z,18.28
2022-08-02T22:28:35.302Z,18.29
2022-08-02T22:30:52.499Z,18.26
2022-08-02T22:33:41.953Z,18.28
2022-08-02T22:36:11.449Z,18.30
2022-08-02T22:38:44.670Z,18.31
2022-08-02T22:41:13.313Z,18.33
2022-08-02T22:43:42.198Z,18.35
2022-08-02T22:46:15.359Z,18.38
2022-08-02T22:48:46.098Z,18.28
2022-08-02T22:51:15.180Z,18.37
2022-08-02T22:53:44.091Z,18.42
2022-08-02T22:56:15.798Z,18.41
2022-08-02T22:58:38.245Z,16.50
2022-08-02T22:58:48.532Z,16.31
2022-08-02T22:58:52.547Z,16.26
2022-08-02T22:59:00.438Z,16.31
2022-08-02T22:59:11.853Z,18.09
2022-08-02T23:01:32.723Z,18.37
2022-08-02T23:04:02.189Z,18.35
2022-08-02T23:06:30.205Z,18.40
2022-08-02T23:08:58.506Z,18.41
2022-08-02T23:11:26.549Z,18.33
2022-08-02T23:13:54.575Z,18.40
2022-08-02T23:16:40.215Z,18.47
2022-08-02T23:19:30.079Z,18.41
2022-08-02T23:22:01.315Z,18.47
2022-08-02T23:24:33.175Z,18.50
2022-08-02T23:27:02.031Z,18.52
2022-08-02T23:29:30.108Z,18.53
2022-08-02T23:31:59.016Z,18.52
2022-08-02T23:34:28.734Z,18.50
2022-08-02T23:36:56.742Z,18.61
2022-08-02T23:39:24.885Z,18.66
2022-08-02T23:41:55.344Z,18.64
2022-08-02T23:44:24.052Z,18.61
2022-08-02T23:46:52.854Z,18.58
2022-08-02T23:49:22.251Z,18.46
2022-08-02T23:51:53.012Z,18.61
2022-08-02T23:54:21.849Z,18.54
2022-08-02T23:56:49.968Z,18.63
2022-08-02T23:59:18.588Z,18.57
